createdAt,value
2018-12-29T00:01:08.155Z,154.83
2018-12-29T00:03:38.948Z,142.83
2018-12-29T00:06:09.765Z,161.53
2018-12-29T00:08:40.542Z,148.80
2018-12-29T00:11:11.278Z,155.50
2018-12-29T00:13:42.074Z,162.87
2018-12-29T00:16:13.036Z,157.93
2018-12-29T00:18:43.808Z,151.73
2018-12-29T00:21:14.488Z,163.80
2018-12-29T00:23:45.238Z,156.27
2018-12-29T00:26:15.954Z,149.47
2018-12-29T00:28:46.681Z,152.10
2018-12-29T00:31:17.446Z,157.53
2018-12-29T00:33:48.177Z,162.27
2018-12-29T00:36:18.888Z,158.97
2018-12-29T00:38:49.617Z,147.87
2018-12-29T00:41:20.372Z,148.10
2018-12-29T00:43:51.013Z,152.40
2018-12-29T00:46:21.840Z,157.80
2018-12-29T00:48:52.606Z,157.93
2018-12-29T00:51:23.334Z,174.07
2018-12-29T00:53:54.016Z,162.20
2018-12-29T00:56:24.866Z,162.57
2018-12-29T00:58:55.625Z,152.80
2018-12-29T01:01:26.294Z,168.07
2018-12-29T01:03:57.078Z,161.33
2018-12-29T01:06:27.822Z,153.13
2018-12-29T01:08:58.491Z,169.23
2018-12-29T01:11:29.124Z,153.83
2018-12-29T01:14:00.985Z,166.17
2018-12-29T01:16:31.768Z,153.03
2018-12-29T01:19:02.514Z,168.37
2018-12-29T01:21:36.219Z,145.77
2018-12-29T01:24:06.940Z,156.07
2018-12-29T01:26:37.773Z,157.47
2018-12-29T01:29:09.511Z,160.10
2018-12-29T01:31:40.184Z,165.87
2018-12-29T01:34:10.879Z,173.10
2018-12-29T01:36:41.730Z,163.93
2018-12-29T01:39:12.571Z,154.20
2018-12-29T01:41:43.319Z,155.63
2018-12-29T01:44:14.217Z,146.10
2018-12-29T01:46:44.978Z,164.43
2018-12-29T01:49:15.649Z,162.63
2018-12-29T01:51:46.478Z,173.47
2018-12-29T01:54:17.206Z,155.07
2018-12-29T01:56:48.006Z,150.43
2018-12-29T01:59:18.801Z,143.33
2018-12-29T02:17:08.572Z,155.50
2018-12-29T02:19:39.379Z,144.10
2018-12-29T02:22:10.173Z,149.20
2018-12-29T02:24:40.946Z,144.83
2018-12-29T02:27:11.668Z,149.27
2018-12-29T02:29:42.441Z,149.47
2018-12-29T02:32:13.242Z,138.50
2018-12-29T02:34:44.022Z,143.63
2018-12-29T02:37:14.881Z,160.60
2018-12-29T02:39:45.681Z,146.03
2018-12-29T02:42:16.595Z,136.83
2018-12-29T02:44:48.310Z,144.57
2018-12-29T02:47:19.287Z,133.80
2018-12-29T02:49:49.962Z,131.20
2018-12-29T02:52:20.686Z,126.97
2018-12-29T02:54:51.505Z,142.27
2018-12-29T02:57:22.255Z,131.50
2018-12-29T02:59:53.090Z,118.83
2018-12-29T03:02:24.025Z,123.73
2018-12-29T03:04:54.928Z,127.17
2018-12-29T03:07:25.647Z,125.17
2018-12-29T03:09:56.435Z,126.80
2018-12-29T03:12:27.196Z,121.47
2018-12-29T03:14:57.966Z,131.53
2018-12-29T03:17:28.784Z,142.80
2018-12-29T03:19:59.578Z,129.03
2018-12-29T03:22:30.427Z,134.47
2018-12-29T03:25:02.352Z,126.20
2018-12-29T03:27:33.104Z,127.80
2018-12-29T03:30:03.975Z,124.97
2018-12-29T03:32:34.775Z,125.77
2018-12-29T03:35:05.850Z,124.93
2018-12-29T03:37:36.640Z,115.20
2018-12-29T03:40:07.638Z,125.63
2018-12-29T03:42:38.302Z,130.43
2018-12-29T03:45:09.101Z,118.73
2018-12-29T03:47:39.914Z,122.73
2018-12-29T03:50:10.686Z,125.17
2018-12-29T03:52:41.542Z,136.70
2018-12-29T03:55:13.418Z,114.43
2018-12-29T03:57:44.174Z,117.40
2018-12-29T04:00:14.952Z,124.13
2018-12-29T04:02:45.773Z,115.60
2018-12-29T04:05:16.609Z,111.67
2018-12-29T04:07:47.276Z,114.30
2018-12-29T04:10:18.335Z,119.27
2018-12-29T04:12:53.266Z,124.23
2018-12-29T04:15:25.118Z,114.77
2018-12-29T04:17:55.922Z,113.53
2018-12-29T04:20:26.652Z,118.37
2018-12-29T04:22:57.374Z,103.03
2018-12-29T04:25:28.226Z,105.97
2018-12-29T04:27:58.906Z,105.30
2018-12-29T04:30:29.701Z,109.07
2018-12-29T04:33:00.430Z,109.03
2018-12-29T04:35:31.117Z,112.20
2018-12-29T04:38:01.901Z,117.03
2018-12-29T04:40:32.574Z,116.00
2018-12-29T04:43:03.254Z,95.93
2018-12-29T04:45:33.926Z,106.50
2018-12-29T04:48:04.556Z,100.63
2018-12-29T04:50:35.180Z,98.37
2018-12-29T04:53:05.967Z,105.13
2018-12-29T04:55:36.707Z,95.93
2018-12-29T04:58:07.406Z,87.73
2018-12-29T05:00:38.054Z,87.47
2018-12-29T05:03:08.682Z,99.47
2018-12-29T05:05:39.358Z,90.27
2018-12-29T05:08:10.138Z,86.87
2018-12-29T05:10:40.961Z,89.97
2018-12-29T05:13:11.745Z,92.83
2018-12-29T05:15:42.398Z,94.70
2018-12-29T05:18:13.169Z,95.30
2018-12-29T05:20:43.877Z,90.70
2018-12-29T05:23:14.665Z,86.93
2018-12-29T05:25:45.309Z,93.40
2018-12-29T05:28:15.950Z,86.73
2018-12-29T05:30:46.689Z,93.97
2018-12-29T05:33:17.389Z,94.47
2018-12-29T05:35:48.143Z,91.60
2018-12-29T05:38:18.813Z,80.93
2018-12-29T05:40:49.631Z,93.37
2018-12-29T05:43:20.316Z,93.50
2018-12-29T05:45:50.979Z,91.00
2018-12-29T05:48:21.757Z,85.23
2018-12-29T05:50:52.413Z,85.03
2018-12-29T05:53:23.146Z,87.17
2018-12-29T05:55:53.978Z,94.80
2018-12-29T05:58:24.730Z,88.77
2018-12-29T06:00:55.798Z,88.97
2018-12-29T06:03:26.528Z,79.67
2018-12-29T06:05:57.212Z,86.50
2018-12-29T06:08:27.910Z,91.47
2018-12-29T06:10:58.661Z,84.60
2018-12-29T06:13:29.386Z,81.67
2018-12-29T06:16:00.126Z,81.03
2018-12-29T06:18:30.866Z,89.70
2018-12-29T06:21:01.727Z,79.37
2018-12-29T06:23:32.615Z,85.33
2018-12-29T06:26:03.557Z,76.73
2018-12-29T06:28:34.234Z,80.40
2018-12-29T06:31:04.914Z,88.40
2018-12-29T06:33:35.662Z,80.47
2018-12-29T06:36:06.430Z,86.77
2018-12-29T06:38:37.190Z,75.90
2018-12-29T06:41:07.918Z,89.57
2018-12-29T06:43:38.796Z,88.83
2018-12-29T06:46:09.644Z,78.00
2018-12-29T06:48:40.387Z,87.40
2018-12-29T06:51:11.141Z,87.77
2018-12-29T06:53:41.873Z,80.07
2018-12-29T06:56:12.603Z,88.83
2018-12-29T06:58:44.408Z,87.53
2018-12-29T07:01:15.157Z,87.60
2018-12-29T07:03:46.779Z,91.83
2018-12-29T07:06:17.694Z,102.40
2018-12-29T07:08:48.517Z,90.50
2018-12-29T07:11:19.322Z,99.63
2018-12-29T07:13:50.105Z,92.03
2018-12-29T07:16:20.841Z,101.63
2018-12-29T07:18:51.666Z,104.37
2018-12-29T07:21:22.555Z,96.93
2018-12-29T07:23:53.558Z,99.13
2018-12-29T07:26:24.405Z,93.83
2018-12-29T07:28:55.086Z,91.60
2018-12-29T07:31:25.947Z,103.43
2018-12-29T07:33:56.766Z,94.90
2018-12-29T07:36:27.513Z,94.77
2018-12-29T07:38:58.478Z,92.57
2018-12-29T07:41:29.290Z,96.40
2018-12-29T07:44:00.150Z,100.97
2018-12-29T07:46:30.928Z,95.30
2018-12-29T07:49:01.642Z,99.57
2018-12-29T07:51:32.520Z,95.03
2018-12-29T07:54:03.280Z,96.47
2018-12-29T07:56:33.961Z,112.57
2018-12-29T07:59:04.745Z,103.40
2018-12-29T08:01:35.542Z,111.47
2018-12-29T08:04:06.309Z,98.93
2018-12-29T08:06:37.066Z,110.07
2018-12-29T08:09:08.721Z,116.13
2018-12-29T08:11:39.449Z,107.13
2018-12-29T08:14:10.178Z,105.40
2018-12-29T08:16:40.890Z,98.90
2018-12-29T08:19:11.678Z,115.47
2018-12-29T08:21:42.357Z,104.90
2018-12-29T08:24:13.131Z,95.63
2018-12-29T08:26:43.918Z,101.37
2018-12-29T08:29:14.655Z,94.53
2018-12-29T08:31:45.326Z,94.10
2018-12-29T08:34:16.020Z,92.03
2018-12-29T08:36:46.878Z,81.80
2018-12-29T08:39:17.678Z,96.20
2018-12-29T08:41:50.738Z,95.83
2018-12-29T08:44:24.424Z,84.77
2018-12-29T08:46:55.081Z,86.53
2018-12-29T08:49:25.791Z,85.97
2018-12-29T08:51:57.481Z,83.67
2018-12-29T08:54:28.254Z,91.43
2018-12-29T08:56:59.016Z,84.33
2018-12-29T08:59:29.777Z,96.30
2018-12-29T09:02:18.169Z,94.20
2018-12-29T09:05:13.917Z,88.30
2018-12-29T09:07:44.778Z,70.50
2018-12-29T09:10:15.517Z,68.37
2018-12-29T09:12:46.295Z,83.93
2018-12-29T09:15:17.080Z,85.17
2018-12-29T09:17:47.751Z,84.23
2018-12-29T09:20:18.558Z,89.93
2018-12-29T09:22:49.293Z,81.17
2018-12-29T09:25:20.045Z,80.40
2018-12-29T09:27:50.738Z,92.37
2018-12-29T09:30:21.474Z,85.73
2018-12-29T09:32:52.151Z,86.27
2018-12-29T09:35:23.952Z,89.57
2018-12-29T09:37:54.716Z,83.93
2018-12-29T09:40:25.402Z,74.40
2018-12-29T09:42:56.203Z,80.90
2018-12-29T09:45:26.977Z,83.50
2018-12-29T09:47:58.724Z,83.93
2018-12-29T09:50:29.564Z,82.63
2018-12-29T10:02:08.623Z,90.23
2018-12-29T10:04:39.411Z,91.27
2018-12-29T10:07:10.278Z,97.93
2018-12-29T10:09:41.356Z,93.13
2018-12-29T10:12:12.139Z,98.90
2018-12-29T10:14:42.925Z,82.50
2018-12-29T10:17:13.615Z,93.17
2018-12-29T10:19:44.503Z,90.37
2018-12-29T10:22:15.265Z,94.13
2018-12-29T10:24:46.254Z,96.33
2018-12-29T10:27:22.993Z,100.37
2018-12-29T10:29:55.965Z,95.13
2018-12-29T10:32:38.414Z,94.00
2018-12-29T10:35:09.273Z,99.07
2018-12-29T10:37:40.131Z,84.83
2018-12-29T10:40:11.011Z,96.50
2018-12-29T10:42:41.764Z,98.47
2018-12-29T10:45:12.618Z,94.20
2018-12-29T10:47:46.775Z,78.93
2018-12-29T10:50:16.108Z,94.90
2018-12-29T10:52:46.966Z,109.77
2018-12-29T10:55:17.729Z,100.67
2018-12-29T10:57:48.682Z,105.33
2018-12-29T11:00:19.455Z,115.53
2018-12-29T11:02:50.346Z,109.47
2018-12-29T11:05:23.614Z,105.87
2018-12-29T11:07:54.843Z,123.27
2018-12-29T11:10:25.757Z,119.10
2018-12-29T11:12:56.646Z,112.57
2018-12-29T11:15:27.430Z,100.77
2018-12-29T11:17:58.456Z,113.77
2018-12-29T11:20:29.290Z,102.60
2018-12-29T11:23:01.770Z,120.10
2018-12-29T11:25:32.721Z,111.27
2018-12-29T11:28:03.802Z,134.83
2018-12-29T11:30:34.635Z,124.70
2018-12-29T11:33:07.883Z,131.23
2018-12-29T11:35:38.847Z,149.67
2018-12-29T11:38:09.730Z,132.27
2018-12-29T11:40:40.779Z,120.57
2018-12-29T11:43:11.775Z,132.80
2018-12-29T11:45:42.858Z,113.17
2018-12-29T11:48:13.644Z,108.43
2018-12-29T11:50:44.519Z,120.70
2018-12-29T11:53:27.083Z,128.57
2018-12-29T11:55:57.998Z,123.23
2018-12-29T11:58:28.762Z,115.13
2018-12-29T12:00:59.662Z,118.70
2018-12-29T12:03:30.482Z,95.93
2018-12-29T12:06:01.220Z,94.17
2018-12-29T12:08:32.082Z,103.80
2018-12-29T12:11:02.948Z,86.00
2018-12-29T12:13:33.690Z,90.53
2018-12-29T12:16:04.474Z,71.23
2018-12-29T12:18:35.678Z,79.93
2018-12-29T12:21:06.434Z,80.50
2018-12-29T12:23:37.273Z,79.63
2018-12-29T12:26:08.382Z,51.77
2018-12-29T12:28:39.324Z,69.90
2018-12-29T12:31:10.230Z,69.27
2018-12-29T12:33:41.154Z,73.83
2018-12-29T12:36:12.053Z,76.73
2018-12-29T12:38:43.941Z,67.50
2018-12-29T12:41:31.031Z,80.40
2018-12-29T12:44:05.067Z,67.47
2018-12-29T12:46:38.609Z,63.17
2018-12-29T12:49:09.855Z,81.70
2018-12-29T12:51:41.071Z,85.47
2018-12-29T12:54:12.382Z,88.90
2018-12-29T12:56:43.463Z,84.17
2018-12-29T12:59:14.654Z,84.03
2018-12-29T13:01:45.494Z,78.30
2018-12-29T13:04:16.383Z,96.00
2018-12-29T13:06:47.483Z,100.80
2018-12-29T13:09:18.559Z,83.90
2018-12-29T13:11:49.443Z,99.10
2018-12-29T13:14:20.518Z,95.03
2018-12-29T13:16:51.453Z,98.13
2018-12-29T13:19:28.541Z,96.57
2018-12-29T13:21:59.390Z,109.83
2018-12-29T13:24:30.497Z,102.90
2018-12-29T13:27:01.356Z,86.00
2018-12-29T13:29:32.487Z,106.17
2018-12-29T13:32:03.605Z,100.87
2018-12-29T13:34:34.597Z,107.70
2018-12-29T13:37:05.499Z,103.33
2018-12-29T13:39:36.726Z,108.33
2018-12-29T13:42:07.668Z,116.23
2018-12-29T13:44:39.914Z,108.83
2018-12-29T13:47:11.135Z,118.47
2018-12-29T13:49:42.399Z,120.53
2018-12-29T13:52:13.439Z,106.20
2018-12-29T13:54:44.565Z,57.40
2018-12-29T13:57:15.493Z,113.33
2018-12-29T13:59:46.561Z,108.60
2018-12-29T14:02:17.652Z,95.33
2018-12-29T14:04:51.669Z,99.87
2018-12-29T14:07:22.690Z,114.07
2018-12-29T14:10:33.011Z,106.93
2018-12-29T14:13:04.120Z,105.60
2018-12-29T14:15:36.496Z,111.67
2018-12-29T14:18:07.575Z,112.60
2018-12-29T14:20:38.461Z,117.40
2018-12-29T14:23:09.487Z,131.87
2018-12-29T14:25:41.734Z,127.27
2018-12-29T14:28:12.618Z,139.10
2018-12-29T14:30:43.496Z,143.77
2018-12-29T14:33:14.286Z,119.53
2018-12-29T14:35:45.198Z,132.57
2018-12-29T14:38:16.015Z,140.03
2018-12-29T14:40:46.914Z,160.77
2018-12-29T14:43:17.822Z,153.07
2018-12-29T14:45:48.586Z,114.83
2018-12-29T14:48:19.473Z,154.37
2018-12-29T14:50:50.193Z,147.13
2018-12-29T14:53:21.151Z,116.87
2018-12-29T14:55:52.035Z,132.67
2018-12-29T14:58:22.952Z,109.60
2018-12-29T15:00:53.832Z,131.60
2018-12-29T15:03:24.779Z,122.67
2018-12-29T15:05:55.741Z,110.60
2018-12-29T15:08:26.723Z,120.30
2018-12-29T15:10:57.774Z,101.17
2018-12-29T15:13:29.028Z,100.17
2018-12-29T15:15:59.934Z,91.00
2018-12-29T15:18:30.727Z,100.80
2018-12-29T15:21:01.943Z,73.20
2018-12-29T15:23:38.020Z,79.23
2018-12-29T15:26:19.368Z,71.97
2018-12-29T15:32:28.215Z,65.07
2018-12-29T15:34:59.564Z,67.20
2018-12-29T15:37:30.770Z,69.60
2018-12-29T15:40:01.669Z,55.97
2018-12-29T15:42:32.607Z,59.90
2018-12-29T15:45:03.562Z,61.83
2018-12-29T15:47:38.638Z,50.37
2018-12-29T15:50:10.637Z,43.37
2018-12-29T15:52:41.625Z,52.23
2018-12-29T15:55:18.943Z,63.60
2018-12-29T15:57:50.240Z,37.73
2018-12-29T16:00:21.236Z,38.13
2018-12-29T16:02:56.495Z,48.37
2018-12-29T16:05:29.236Z,40.20
2018-12-29T16:08:00.374Z,40.93
2018-12-29T16:10:31.400Z,40.60
2018-12-29T16:13:02.873Z,38.77
2018-12-29T16:15:33.912Z,36.27
2018-12-29T16:18:05.243Z,38.17
2018-12-29T16:20:37.922Z,42.03
2018-12-29T16:23:09.052Z,35.33
2018-12-29T16:25:40.461Z,30.93
2018-12-29T16:28:11.426Z,28.50
2018-12-29T16:30:42.489Z,31.53
2018-12-29T16:33:13.640Z,37.00
2018-12-29T16:35:47.562Z,33.47
2018-12-29T16:38:18.660Z,33.13
2018-12-29T16:40:49.571Z,27.43
2018-12-29T16:43:20.480Z,34.40
2018-12-29T16:45:51.622Z,26.53
2018-12-29T16:48:26.669Z,30.57
2018-12-29T16:50:57.917Z,31.47
2018-12-29T16:53:32.211Z,20.97
2018-12-29T16:56:06.325Z,27.90
2018-12-29T16:58:39.138Z,23.27
2018-12-29T17:01:14.465Z,23.50
2018-12-29T17:03:45.713Z,23.73
2018-12-29T17:06:16.696Z,18.93
2018-12-29T17:08:50.816Z,19.17
2018-12-29T17:11:22.926Z,22.67
2018-12-29T17:13:55.179Z,22.27
2018-12-29T17:16:27.301Z,22.60
2018-12-29T17:18:58.221Z,19.90
2018-12-29T17:21:29.228Z,19.47
2018-12-29T17:24:00.246Z,21.63
2018-12-29T17:26:38.279Z,17.17
2018-12-29T17:29:09.166Z,20.63
2018-12-29T17:31:40.074Z,19.43
2018-12-29T17:34:11.341Z,22.47
2018-12-29T17:36:42.291Z,18.30
2018-12-29T17:39:14.213Z,14.57
2018-12-29T17:41:45.083Z,21.40
2018-12-29T17:44:15.952Z,16.13
2018-12-29T17:46:46.730Z,15.27
2018-12-29T17:49:22.612Z,14.90
2018-12-29T17:51:51.113Z,20.83
2018-12-29T17:54:22.576Z,26.97
2018-12-29T17:56:53.683Z,10.20
2018-12-29T17:59:24.546Z,16.37
2018-12-29T18:01:55.847Z,13.10
2018-12-29T18:04:28.043Z,34.80
2018-12-29T18:06:58.970Z,18.30
2018-12-29T18:09:29.805Z,25.70
2018-12-29T18:12:05.765Z,481.37
2018-12-29T18:14:42.433Z,31.23
2018-12-29T18:17:14.257Z,42.40
2018-12-29T18:19:45.126Z,23.93
2018-12-29T18:22:16.066Z,18.83
2018-12-29T18:24:47.008Z,27.00
2018-12-29T18:27:18.319Z,16.63
2018-12-29T18:29:49.321Z,21.20
2018-12-29T18:32:22.610Z,18.77
2018-12-29T18:34:53.691Z,22.43
2018-12-29T18:37:25.253Z,20.80
2018-12-29T18:39:56.114Z,18.40
2018-12-29T18:42:26.997Z,22.70
2018-12-29T18:44:58.366Z,22.40
2018-12-29T18:47:29.267Z,27.17
2018-12-29T18:50:00.369Z,28.43
2018-12-29T18:52:31.257Z,21.63
2018-12-29T18:55:02.169Z,22.60
2018-12-29T18:57:32.967Z,20.67
2018-12-29T19:00:03.888Z,23.73
2018-12-29T19:02:35.083Z,30.37
2018-12-29T19:05:06.031Z,17.73
2018-12-29T19:07:37.183Z,17.53
2018-12-29T19:10:08.706Z,20.67
2018-12-29T19:12:39.816Z,34.10
2018-12-29T19:15:10.731Z,26.47
2018-12-29T19:17:42.094Z,30.67
2018-12-29T19:20:13.468Z,19.10
2018-12-29T19:22:44.285Z,27.03
2018-12-29T19:25:16.969Z,23.40
2018-12-29T19:27:47.974Z,28.03
2018-12-29T19:30:19.326Z,23.17
2018-12-29T19:32:50.455Z,24.87
2018-12-29T19:35:21.400Z,21.73
2018-12-29T19:37:53.838Z,16.77
2018-12-29T19:40:26.807Z,20.10
2018-12-29T19:43:01.393Z,22.97
2018-12-29T19:45:32.463Z,27.73
2018-12-29T19:48:04.670Z,19.60
2018-12-29T19:50:35.846Z,23.30
2018-12-29T19:53:06.892Z,25.27
2018-12-29T19:55:37.827Z,23.07
2018-12-29T19:58:08.884Z,17.97
2018-12-29T20:00:40.138Z,22.33
2018-12-29T20:03:11.571Z,25.50
2018-12-29T20:05:43.069Z,35.27
2018-12-29T20:08:14.423Z,31.53
2018-12-29T20:11:18.763Z,25.97
2018-12-29T20:13:59.983Z,17.00
2018-12-29T20:16:33.207Z,21.40
2018-12-29T20:19:11.010Z,32.80
2018-12-29T20:21:43.304Z,29.37
2018-12-29T20:24:14.376Z,23.10
2018-12-29T20:26:45.346Z,27.50
2018-12-29T20:29:16.231Z,27.33
2018-12-29T20:31:48.395Z,32.70
2018-12-29T20:34:19.375Z,32.30
2018-12-29T20:36:50.716Z,28.67
2018-12-29T20:39:21.631Z,34.17
2018-12-29T20:41:52.906Z,25.07
2018-12-29T20:44:23.827Z,20.83
2018-12-29T20:46:56.975Z,25.33
2018-12-29T20:49:29.534Z,28.20
2018-12-29T20:52:00.981Z,33.20
2018-12-29T20:54:36.650Z,27.17
2018-12-29T20:57:07.772Z,21.40
2018-12-29T20:59:38.842Z,23.13
2018-12-29T21:02:10.163Z,20.10
2018-12-29T21:04:41.021Z,29.37
2018-12-29T21:07:11.967Z,26.20
2018-12-29T21:09:43.312Z,25.67
2018-12-29T21:12:14.584Z,26.27
2018-12-29T21:14:46.001Z,24.23
2018-12-29T21:17:17.519Z,28.87
2018-12-29T21:19:48.710Z,14.87
2018-12-29T21:22:19.870Z,18.63
2018-12-29T21:24:50.675Z,17.33
2018-12-29T21:27:21.491Z,24.60
2018-12-29T21:29:52.286Z,23.80
2018-12-29T21:32:23.069Z,23.77
2018-12-29T21:34:53.879Z,23.43
2018-12-29T21:37:24.799Z,24.70
2018-12-29T21:39:56.638Z,28.07
2018-12-29T21:42:27.488Z,28.63
2018-12-29T21:44:58.689Z,28.10
2018-12-29T21:47:29.395Z,26.60
2018-12-29T21:50:00.174Z,26.70
2018-12-29T21:52:30.926Z,22.53
2018-12-29T21:55:02.896Z,31.47
2018-12-29T21:57:33.694Z,27.77
2018-12-29T22:00:07.648Z,34.73
2018-12-29T22:02:38.491Z,34.33
2018-12-29T22:05:09.497Z,28.40
2018-12-29T22:07:40.525Z,28.00
2018-12-29T22:10:11.315Z,27.17
2018-12-29T22:12:42.180Z,24.73
2018-12-29T22:15:13.031Z,25.57
2018-12-29T22:17:43.947Z,43.77
2018-12-29T22:20:15.170Z,31.80
2018-12-29T22:22:45.968Z,26.67
2018-12-29T22:25:17.059Z,27.23
2018-12-29T22:27:47.929Z,27.20
2018-12-29T22:30:18.666Z,28.37
2018-12-29T22:32:49.582Z,27.93
2018-12-29T22:35:20.484Z,27.90
2018-12-29T22:37:51.347Z,22.37
2018-12-29T22:40:22.234Z,26.17
2018-12-29T22:42:53.524Z,23.33
2018-12-29T22:45:25.385Z,40.03
2018-12-29T22:47:56.054Z,30.70
2018-12-29T22:50:26.896Z,39.60
2018-12-29T22:52:57.714Z,21.17
2018-12-29T22:55:28.653Z,27.37
2018-12-29T22:57:59.541Z,22.03
2018-12-29T23:00:40.347Z,21.40
2018-12-29T23:03:11.248Z,28.13
2018-12-29T23:05:42.079Z,41.17
2018-12-29T23:08:13.011Z,25.70
2018-12-29T23:10:43.889Z,29.33
2018-12-29T23:13:14.678Z,24.93
2018-12-29T23:15:45.572Z,28.33
2018-12-29T23:18:16.459Z,32.63
2018-12-29T23:20:49.150Z,33.10
2018-12-29T23:23:20.271Z,28.10
2018-12-29T23:25:51.421Z,33.07
2018-12-29T23:28:22.275Z,25.73
2018-12-29T23:30:53.088Z,26.00
2018-12-29T23:33:24.082Z,26.90
2018-12-29T23:35:55.990Z,34.63
2018-12-29T23:38:26.806Z,32.83
2018-12-29T23:40:57.659Z,32.73
2018-12-29T23:43:28.541Z,30.53
2018-12-29T23:45:59.368Z,33.23
2018-12-29T23:48:30.208Z,28.63
2018-12-29T23:51:05.633Z,31.60
2018-12-29T23:53:33.514Z,32.17
2018-12-29T23:56:04.895Z,26.97
2018-12-29T23:58:35.836Z,29.60
